createdAt,value
2023-05-19T00:01:37.743Z,76.21
2023-05-19T00:04:40.732Z,76.08
2023-05-19T00:07:45.588Z,76.28
2023-05-19T00:10:48.394Z,76.57
2023-05-19T00:13:55.825Z,77.45
2023-05-19T00:16:58.036Z,77.86
2023-05-19T00:20:01.517Z,77.75
2023-05-19T00:23:03.196Z,77.41
2023-05-19T00:26:05.416Z,77.55
2023-05-19T00:29:09.075Z,77.97
2023-05-19T00:32:11.292Z,78.13
2023-05-19T00:35:14.017Z,78.22
2023-05-19T00:38:15.727Z,78.24
2023-05-19T00:41:18.371Z,78.41
2023-05-19T00:44:20.538Z,78.15
2023-05-19T00:47:22.709Z,78.45
2023-05-19T00:50:27.894Z,78.64
2023-05-19T00:53:31.041Z,78.60
2023-05-19T00:56:33.640Z,78.95
2023-05-19T00:59:36.255Z,78.83
2023-05-19T01:02:39.989Z,79.07
2023-05-19T01:05:44.844Z,78.86
2023-05-19T01:08:46.609Z,79.07
2023-05-19T01:11:49.183Z,78.68
2023-05-19T01:14:51.446Z,79.53
2023-05-19T01:18:12.262Z,79.43
2023-05-19T01:21:50.487Z,79.37
2023-05-19T01:25:13.107Z,80.00
2023-05-19T01:28:37.553Z,79.71
2023-05-19T01:31:42.966Z,80.13
2023-05-19T01:34:48.931Z,80.37
2023-05-19T01:37:54.531Z,80.86
2023-05-19T01:40:58.066Z,81.06
2023-05-19T01:44:00.493Z,81.42
2023-05-19T01:47:03.965Z,80.34
2023-05-19T01:50:07.281Z,80.39
2023-05-19T01:53:09.185Z,81.26
2023-05-19T01:56:10.910Z,81.05
2023-05-19T01:59:33.598Z,81.84
2023-05-19T02:03:07.618Z,82.48
2023-05-19T02:06:41.962Z,81.80
2023-05-19T02:10:02.650Z,82.31
2023-05-19T02:13:08.686Z,81.75
2023-05-19T02:16:13.469Z,82.46
2023-05-19T02:19:26.346Z,82.81
2023-05-19T02:22:31.143Z,82.62
2023-05-19T02:25:33.339Z,82.83
2023-05-19T02:28:36.629Z,83.15
2023-05-19T02:31:39.166Z,83.09
2023-05-19T02:34:45.669Z,83.59
2023-05-19T02:37:48.369Z,83.11
2023-05-19T02:40:52.327Z,83.50
2023-05-19T02:43:54.242Z,83.39
2023-05-19T02:46:56.595Z,83.66
2023-05-19T02:49:58.741Z,82.83
2023-05-19T02:53:02.550Z,83.45
2023-05-19T02:56:05.112Z,82.84
2023-05-19T02:59:07.760Z,82.51
2023-05-19T03:02:11.405Z,83.23
2023-05-19T03:05:14.410Z,82.68
2023-05-19T03:08:16.455Z,82.74
2023-05-19T03:11:18.676Z,83.41
2023-05-19T03:14:24.168Z,83.43
2023-05-19T03:17:26.147Z,83.11
2023-05-19T03:20:31.013Z,82.98
2023-05-19T03:23:33.371Z,82.76
2023-05-19T03:26:35.036Z,82.65
2023-05-19T03:29:37.256Z,82.74
2023-05-19T03:32:40.199Z,82.84
2023-05-19T03:35:44.378Z,83.08
2023-05-19T03:38:46.579Z,82.92
2023-05-19T03:41:48.752Z,83.26
2023-05-19T03:44:51.085Z,83.38
2023-05-19T03:47:54.165Z,83.56
2023-05-19T03:51:09.078Z,83.18
2023-05-19T03:54:10.793Z,83.20
2023-05-19T03:57:13.012Z,83.98
2023-05-19T04:00:16.675Z,83.84
2023-05-19T04:03:19.596Z,83.54
2023-05-19T04:06:22.096Z,83.14
2023-05-19T04:09:25.970Z,83.11
2023-05-19T04:12:27.660Z,83.30
2023-05-19T04:15:31.244Z,83.30
2023-05-19T04:18:33.634Z,83.48
2023-05-19T04:21:35.303Z,83.90
2023-05-19T04:24:37.572Z,83.94
2023-05-19T04:27:39.975Z,84.02
2023-05-19T04:30:42.687Z,83.82
2023-05-19T04:33:44.903Z,83.50
2023-05-19T04:36:49.491Z,82.92
2023-05-19T04:39:52.956Z,83.70
2023-05-19T04:42:58.096Z,83.80
2023-05-19T04:46:00.545Z,83.41
2023-05-19T04:49:03.134Z,83.64
2023-05-19T04:52:08.653Z,83.89
2023-05-19T04:55:13.332Z,84.02
2023-05-19T04:58:17.831Z,83.55
2023-05-19T05:01:23.083Z,84.18
2023-05-19T05:04:24.821Z,83.69
2023-05-19T05:07:27.045Z,83.50
2023-05-19T05:10:29.900Z,84.30
2023-05-19T05:13:31.996Z,83.44
2023-05-19T05:16:36.618Z,83.73
2023-05-19T05:19:40.524Z,84.48
2023-05-19T05:22:44.577Z,84.29
2023-05-19T05:25:48.222Z,84.44
2023-05-19T05:28:51.950Z,84.41
2023-05-19T05:31:54.536Z,84.34
2023-05-19T05:34:57.680Z,84.15
2023-05-19T05:38:01.687Z,84.81
2023-05-19T05:41:03.759Z,84.49
2023-05-19T05:44:07.878Z,83.93
2023-05-19T05:47:12.416Z,84.38
2023-05-19T05:50:15.224Z,83.87
2023-05-19T05:53:21.863Z,83.62
2023-05-19T05:56:28.754Z,84.12
2023-05-19T05:59:30.581Z,83.63
2023-05-19T06:02:33.050Z,83.24
2023-05-19T06:05:36.569Z,82.85
2023-05-19T06:08:38.879Z,83.14
2023-05-19T06:11:40.731Z,82.89
2023-05-19T06:14:43.427Z,83.14
2023-05-19T06:17:50.878Z,82.99
2023-05-19T06:20:54.454Z,82.03
2023-05-19T06:23:56.685Z,81.70
2023-05-19T06:26:58.855Z,81.44
2023-05-19T06:30:01.264Z,81.09
2023-05-19T06:33:06.652Z,80.75
2023-05-19T06:36:10.196Z,80.48
2023-05-19T06:39:13.924Z,80.01
2023-05-19T06:42:16.277Z,79.50
2023-05-19T06:45:33.028Z,77.54
2023-05-19T06:48:37.397Z,77.29
2023-05-19T06:51:39.616Z,76.65
2023-05-19T06:54:43.169Z,76.96
2023-05-19T06:57:46.245Z,76.92
2023-05-19T07:00:49.782Z,76.89
2023-05-19T07:03:52.720Z,75.96
2023-05-19T07:06:55.568Z,74.54
2023-05-19T07:09:57.626Z,74.45
2023-05-19T07:13:01.338Z,73.87
2023-05-19T07:16:07.813Z,73.35
2023-05-19T07:19:10.155Z,72.45
2023-05-19T07:22:11.968Z,72.86
2023-05-19T07:25:14.097Z,73.88
2023-05-19T07:28:15.971Z,73.75
2023-05-19T07:31:17.793Z,73.51
2023-05-19T07:34:21.964Z,72.37
2023-05-19T07:37:23.650Z,72.36
2023-05-19T07:40:25.778Z,72.55
2023-05-19T07:43:27.567Z,72.08
2023-05-19T07:46:29.719Z,72.27
2023-05-19T07:49:31.434Z,72.48
2023-05-19T07:52:33.857Z,72.85
2023-05-19T07:55:35.809Z,72.54
2023-05-19T07:58:38.406Z,71.87
2023-05-19T08:01:40.839Z,72.46
2023-05-19T08:04:43.022Z,71.84
2023-05-19T08:07:45.223Z,71.66
2023-05-19T08:10:46.925Z,71.06
2023-05-19T08:13:49.386Z,71.30
2023-05-19T08:16:51.762Z,72.39
2023-05-19T08:19:53.899Z,71.77
2023-05-19T08:22:55.509Z,71.63
2023-05-19T08:25:57.749Z,71.95
2023-05-19T08:28:59.933Z,71.58
2023-05-19T08:32:02.807Z,71.91
2023-05-19T08:35:05.177Z,71.81
2023-05-19T08:38:07.266Z,71.80
2023-05-19T08:41:09.721Z,71.76
2023-05-19T08:44:12.043Z,71.09
2023-05-19T08:47:14.904Z,71.14
2023-05-19T08:50:29.046Z,71.64
2023-05-19T08:53:37.788Z,71.03
2023-05-19T08:56:40.146Z,71.20
2023-05-19T08:59:43.964Z,70.90
2023-05-19T09:02:55.460Z,71.13
2023-05-19T09:06:10.081Z,71.08
2023-05-19T09:09:12.395Z,69.20
2023-05-19T09:12:14.765Z,68.88
2023-05-19T09:15:21.162Z,68.69
2023-05-19T09:18:27.541Z,68.82
2023-05-19T09:21:32.031Z,69.26
2023-05-19T09:24:36.769Z,68.46
2023-05-19T09:27:46.180Z,67.56
2023-05-19T09:31:03.745Z,66.70
2023-05-19T09:34:15.231Z,66.48
2023-05-19T09:37:19.735Z,66.44
2023-05-19T09:40:28.579Z,65.45
2023-05-19T09:43:38.461Z,66.02
2023-05-19T09:46:57.706Z,65.91
2023-05-19T09:50:02.361Z,65.68
2023-05-19T09:53:04.144Z,65.85
2023-05-19T09:56:09.439Z,64.46
2023-05-19T09:59:16.830Z,64.83
2023-05-19T10:02:26.472Z,64.01
2023-05-19T10:05:31.164Z,64.98
2023-05-19T10:08:34.549Z,64.67
2023-05-19T10:11:44.481Z,64.18
2023-05-19T10:14:49.982Z,64.08
2023-05-19T10:17:55.787Z,63.93
2023-05-19T10:21:02.566Z,63.71
2023-05-19T10:24:06.790Z,64.40
2023-05-19T10:27:13.731Z,64.80
2023-05-19T10:30:37.360Z,64.03
2023-05-19T10:33:43.789Z,63.23
2023-05-19T10:37:20.457Z,63.72
2023-05-19T10:40:55.339Z,64.02
2023-05-19T10:44:36.537Z,64.32
2023-05-19T10:47:45.507Z,63.75
2023-05-19T10:50:54.451Z,64.02
2023-05-19T10:54:03.379Z,63.87
2023-05-19T10:57:16.514Z,64.68
2023-05-19T11:00:36.896Z,64.73
2023-05-19T11:03:47.513Z,64.87
2023-05-19T11:06:54.687Z,65.61
2023-05-19T11:10:08.715Z,65.75
2023-05-19T11:13:20.299Z,65.41
2023-05-19T11:16:32.534Z,65.38
2023-05-19T11:20:01.214Z,65.65
2023-05-19T11:23:10.062Z,65.83
2023-05-19T11:26:18.182Z,66.25
2023-05-19T11:29:27.371Z,66.86
2023-05-19T11:32:38.544Z,66.58
2023-05-19T11:35:45.947Z,66.84
2023-05-19T11:38:52.268Z,66.31
2023-05-19T11:41:58.181Z,66.48
2023-05-19T11:45:05.908Z,66.32
2023-05-19T11:48:16.276Z,66.25
2023-05-19T11:51:21.767Z,66.62
2023-05-19T11:54:33.997Z,67.43
2023-05-19T11:57:47.020Z,66.80
2023-05-19T12:00:57.198Z,66.43
2023-05-19T12:04:04.752Z,66.94
2023-05-19T12:07:09.811Z,66.74
2023-05-19T12:10:14.781Z,66.74
2023-05-19T12:13:20.712Z,66.93
2023-05-19T12:16:25.246Z,66.22
2023-05-19T12:19:31.598Z,66.13
2023-05-19T12:22:35.932Z,66.04
2023-05-19T12:25:46.700Z,66.02
2023-05-19T12:28:53.934Z,66.30
2023-05-19T12:31:58.962Z,67.01
2023-05-19T12:35:09.713Z,66.19
2023-05-19T12:38:16.408Z,65.61
2023-05-19T12:41:22.258Z,65.91
2023-05-19T12:44:26.808Z,66.14
2023-05-19T12:47:38.037Z,66.28
2023-05-19T12:50:42.510Z,66.63
2023-05-19T12:56:53.290Z,67.51
2023-05-19T13:00:13.093Z,67.67
2023-05-19T13:03:23.046Z,66.90
2023-05-19T13:06:24.985Z,66.92
2023-05-19T13:09:28.808Z,67.53
2023-05-19T13:12:34.505Z,66.90
2023-05-19T13:15:43.790Z,66.42
2023-05-19T13:18:49.372Z,67.04
2023-05-19T13:21:54.491Z,67.10
2023-05-19T13:25:01.809Z,66.49
2023-05-19T13:28:05.985Z,65.91
2023-05-19T13:31:09.124Z,65.72
2023-05-19T13:34:13.206Z,65.33
2023-05-19T13:37:16.509Z,66.00
2023-05-19T13:40:20.639Z,65.00
2023-05-19T13:43:25.860Z,64.51
2023-05-19T13:49:58.784Z,64.21
2023-05-19T13:51:33.005Z,64.95
2023-05-19T13:53:02.303Z,64.07
2023-05-19T13:56:08.946Z,64.24
2023-05-19T13:59:12.481Z,64.07
2023-05-19T14:02:15.747Z,63.72
2023-05-19T14:05:17.518Z,63.26
2023-05-19T14:08:20.902Z,62.82
2023-05-19T14:11:29.053Z,63.61
2023-05-19T14:14:37.432Z,63.43
2023-05-19T14:17:39.866Z,63.90
2023-05-19T14:20:46.321Z,62.68
2023-05-19T14:23:54.803Z,61.97
2023-05-19T14:27:01.622Z,62.23
2023-05-19T14:30:07.607Z,62.98
2023-05-19T14:33:11.799Z,62.35
2023-05-19T14:36:20.600Z,62.26
2023-05-19T14:39:27.119Z,62.51
2023-05-19T14:42:45.012Z,62.22
2023-05-19T14:45:49.566Z,61.78
2023-05-19T14:48:52.530Z,62.17
2023-05-19T14:51:56.847Z,61.00
2023-05-19T14:55:05.697Z,61.37
2023-05-19T14:58:23.554Z,62.09
2023-05-19T15:01:32.802Z,61.72
2023-05-19T15:04:41.840Z,61.11
2023-05-19T15:07:46.605Z,60.70
2023-05-19T15:10:51.368Z,60.39
2023-05-19T15:13:54.436Z,60.15
2023-05-19T15:16:57.475Z,59.95
2023-05-19T15:20:01.622Z,59.53
2023-05-19T15:23:10.058Z,59.60
2023-05-19T15:26:25.151Z,59.59
2023-05-19T15:29:28.949Z,59.60
2023-05-19T15:32:36.186Z,60.36
2023-05-19T15:35:42.982Z,60.20
2023-05-19T15:38:54.526Z,58.97
2023-05-19T15:42:03.453Z,59.89
2023-05-19T15:45:12.666Z,60.27
2023-05-19T15:48:17.857Z,60.47
2023-05-19T15:51:21.133Z,60.10
2023-05-19T15:54:25.527Z,60.42
2023-05-19T15:57:27.659Z,60.87
2023-05-19T16:00:29.369Z,60.76
2023-05-19T16:03:33.114Z,61.44
2023-05-19T16:06:36.082Z,61.04
2023-05-19T16:10:36.309Z,61.54
2023-05-19T16:17:50.201Z,60.71
2023-05-19T16:20:58.213Z,60.58
2023-05-19T16:24:01.012Z,60.78
2023-05-19T16:27:05.468Z,60.86
2023-05-19T16:30:33.695Z,60.83
2023-05-19T16:33:41.822Z,61.45
2023-05-19T16:36:44.198Z,61.20
2023-05-19T16:39:48.421Z,61.69
2023-05-19T16:42:53.219Z,61.07
2023-05-19T16:45:57.198Z,60.90
2023-05-19T16:49:01.766Z,61.18
2023-05-19T16:52:10.580Z,61.31
2023-05-19T16:55:19.920Z,61.70
2023-05-19T16:58:30.884Z,61.81
2023-05-19T17:01:39.191Z,61.48
2023-05-19T17:04:47.008Z,62.19
2023-05-19T17:07:53.150Z,62.61
2023-05-19T17:11:00.263Z,63.56
2023-05-19T17:14:07.688Z,63.06
2023-05-19T17:17:19.967Z,62.63
2023-05-19T17:20:22.617Z,62.33
2023-05-19T17:23:24.624Z,62.76
2023-05-19T17:26:28.463Z,63.08
2023-05-19T17:29:34.636Z,63.42
2023-05-19T17:32:41.549Z,63.53
2023-05-19T17:35:45.588Z,63.90
2023-05-19T17:38:51.455Z,63.90
2023-05-19T17:41:54.626Z,64.00
2023-05-19T17:45:04.291Z,64.10
2023-05-19T17:48:11.751Z,64.97
2023-05-19T17:51:17.294Z,64.83
2023-05-19T17:54:32.381Z,65.04
2023-05-19T17:57:41.902Z,65.70
2023-05-19T18:00:45.986Z,65.81
2023-05-19T18:03:53.284Z,66.24
2023-05-19T18:07:05.974Z,67.19
2023-05-19T18:10:22.073Z,68.59
2023-05-19T18:13:26.578Z,68.61
2023-05-19T18:16:30.601Z,67.76
2023-05-19T18:19:34.324Z,67.78
2023-05-19T18:22:37.325Z,67.37
2023-05-19T18:25:40.714Z,67.34
2023-05-19T18:28:46.202Z,67.58
2023-05-19T18:31:48.690Z,67.58
2023-05-19T18:34:52.564Z,67.84
2023-05-19T18:37:59.536Z,69.28
2023-05-19T18:41:11.279Z,70.81
2023-05-19T18:44:18.027Z,72.26
2023-05-19T18:47:31.949Z,73.16
2023-05-19T18:50:34.968Z,73.77
2023-05-19T18:53:37.435Z,74.35
2023-05-19T18:56:39.898Z,74.92
2023-05-19T18:59:42.626Z,75.08
2023-05-19T19:02:49.130Z,74.04
2023-05-19T19:06:02.415Z,75.21
2023-05-19T19:09:04.774Z,76.26
2023-05-19T19:12:10.032Z,76.44
2023-05-19T19:15:14.144Z,77.05
2023-05-19T19:18:19.197Z,77.25
2023-05-19T19:21:25.126Z,77.68
2023-05-19T19:24:35.836Z,77.87
2023-05-19T19:27:40.114Z,78.21
2023-05-19T19:30:43.517Z,78.73
2023-05-19T19:33:50.833Z,78.67
2023-05-19T19:36:54.330Z,79.42
2023-05-19T19:43:21.388Z,79.81
2023-05-19T19:46:24.168Z,80.06
2023-05-19T19:49:32.080Z,80.27
2023-05-19T19:52:38.347Z,80.51
2023-05-19T19:55:44.350Z,78.82
2023-05-19T19:58:47.353Z,78.25
2023-05-19T20:01:49.593Z,78.01
2023-05-19T20:04:54.354Z,77.31
2023-05-19T20:08:00.499Z,77.68
2023-05-19T20:11:04.702Z,78.35
2023-05-19T20:14:08.255Z,77.53
2023-05-19T20:17:15.699Z,77.63
2023-05-19T20:20:20.423Z,77.01
2023-05-19T20:23:24.668Z,76.93
2023-05-19T20:26:31.408Z,76.64
2023-05-19T20:29:38.040Z,76.41
2023-05-19T20:32:42.371Z,76.57
2023-05-19T20:35:46.546Z,76.63
2023-05-19T20:38:54.190Z,76.36
2023-05-19T20:41:59.495Z,77.07
2023-05-19T20:45:01.953Z,77.03
2023-05-19T20:48:12.216Z,76.67
2023-05-19T20:51:17.287Z,76.84
2023-05-19T20:54:22.041Z,77.11
2023-05-19T20:57:30.515Z,76.91
2023-05-19T21:00:37.253Z,77.03
2023-05-19T21:03:47.280Z,76.99
2023-05-19T21:06:51.833Z,77.10
2023-05-19T21:10:01.802Z,77.12
2023-05-19T21:13:06.478Z,76.71
2023-05-19T21:16:14.511Z,77.00
2023-05-19T21:19:23.611Z,76.80
2023-05-19T21:22:27.949Z,77.10
2023-05-19T21:25:35.004Z,77.01
2023-05-19T21:28:38.816Z,77.10
2023-05-19T21:31:42.563Z,77.10
2023-05-19T21:34:47.357Z,77.21
2023-05-19T21:37:50.499Z,76.83
2023-05-19T21:40:54.102Z,76.84
2023-05-19T21:44:01.518Z,76.86
2023-05-19T21:47:03.908Z,77.09
2023-05-19T21:50:10.947Z,77.36
2023-05-19T21:53:13.249Z,77.37
2023-05-19T21:56:16.528Z,77.19
2023-05-19T21:59:24.919Z,77.68
2023-05-19T22:02:32.758Z,77.51
2023-05-19T22:05:38.356Z,77.95
2023-05-19T22:08:42.993Z,78.29
2023-05-19T22:11:47.611Z,78.28
2023-05-19T22:14:51.896Z,78.66
2023-05-19T22:17:55.689Z,78.98
2023-05-19T22:21:02.094Z,79.58
2023-05-19T22:24:05.635Z,79.42
2023-05-19T22:27:08.320Z,79.92
2023-05-19T22:30:12.212Z,80.43
2023-05-19T22:33:16.227Z,80.59
2023-05-19T22:36:20.245Z,81.13
2023-05-19T22:39:23.613Z,81.13
2023-05-19T22:42:28.268Z,81.03
2023-05-19T22:45:31.974Z,81.24
2023-05-19T22:48:34.124Z,81.63
2023-05-19T22:51:40.219Z,81.78
2023-05-19T22:54:42.993Z,82.03
2023-05-19T22:57:47.530Z,81.98
2023-05-19T23:00:49.162Z,82.05
2023-05-19T23:03:53.612Z,82.62
2023-05-19T23:06:56.313Z,82.32
2023-05-19T23:09:59.723Z,82.31
2023-05-19T23:13:03.450Z,82.80
2023-05-19T23:16:09.664Z,83.04
2023-05-19T23:19:14.925Z,83.20
2023-05-19T23:22:19.820Z,83.13
2023-05-19T23:25:22.581Z,83.40
2023-05-19T23:28:25.869Z,83.60
2023-05-19T23:31:28.379Z,83.86
2023-05-19T23:34:36.302Z,84.05
2023-05-19T23:37:40.764Z,84.51
2023-05-19T23:40:45.379Z,84.40
2023-05-19T23:43:48.972Z,84.32
2023-05-19T23:46:54.554Z,84.91
2023-05-19T23:50:00.589Z,85.07
2023-05-19T23:53:13.350Z,85.34
2023-05-19T23:56:17.494Z,85.81
2023-05-19T23:59:20.142Z,85.94
